sensor_id;sensor_type;location;lat;lon;timestamp;P1;durP1;ratioP1;P2;durP2;ratioP2
71202;SDS011;58929;47.490;19.090;2023-03-04T00:00:07;96.05;;;56.83;;
71202;SDS011;58929;47.490;19.090;2023-03-04T00:02:35;97.97;;;53.90;;
71202;SDS011;58929;47.490;19.090;2023-03-04T00:05:03;98.93;;;55.67;;
71202;SDS011;58929;47.490;19.090;2023-03-04T00:07:31;102.78;;;57.67;;
71202;SDS011;58929;47.490;19.090;2023-03-04T00:09:59;103.72;;;59.38;;
71202;SDS011;58929;47.490;19.090;2023-03-04T00:12:27;97.30;;;56.83;;
71202;SDS011;58929;47.490;19.090;2023-03-04T00:14:55;104.57;;;59.35;;
71202;SDS011;58929;47.490;19.090;2023-03-04T00:17:27;104.25;;;59.47;;
71202;SDS011;58929;47.490;19.090;2023-03-04T00:19:57;105.68;;;58.88;;
71202;SDS011;58929;47.490;19.090;2023-03-04T00:22:24;119.72;;;65.68;;
71202;SDS011;58929;47.490;19.090;2023-03-04T00:24:53;109.13;;;61.03;;
71202;SDS011;58929;47.490;19.090;2023-03-04T00:27:20;115.97;;;64.70;;
71202;SDS011;58929;47.490;19.090;2023-03-04T00:29:48;112.15;;;63.45;;
71202;SDS011;58929;47.490;19.090;2023-03-04T00:32:17;109.28;;;62.05;;
71202;SDS011;58929;47.490;19.090;2023-03-04T00:34:47;110.50;;;62.33;;
71202;SDS011;58929;47.490;19.090;2023-03-04T00:37:15;107.22;;;65.50;;
71202;SDS011;58929;47.490;19.090;2023-03-04T00:39:42;123.43;;;66.40;;
71202;SDS011;58929;47.490;19.090;2023-03-04T00:42:10;111.88;;;63.08;;
71202;SDS011;58929;47.490;19.090;2023-03-04T00:44:39;114.32;;;67.03;;
71202;SDS011;58929;47.490;19.090;2023-03-04T00:47:08;109.10;;;63.28;;
71202;SDS011;58929;47.490;19.090;2023-03-04T00:49:36;105.68;;;61.67;;
71202;SDS011;58929;47.490;19.090;2023-03-04T00:52:06;116.65;;;65.10;;
71202;SDS011;58929;47.490;19.090;2023-03-04T00:54:34;117.85;;;62.33;;
71202;SDS011;58929;47.490;19.090;2023-03-04T00:57:02;109.30;;;62.90;;
71202;SDS011;58929;47.490;19.090;2023-03-04T00:59:30;109.75;;;62.58;;
71202;SDS011;58929;47.490;19.090;2023-03-04T01:01:58;107.03;;;60.35;;
71202;SDS011;58929;47.490;19.090;2023-03-04T01:04:28;108.65;;;61.58;;
71202;SDS011;58929;47.490;19.090;2023-03-04T01:06:58;102.50;;;60.80;;
71202;SDS011;58929;47.490;19.090;2023-03-04T01:09:29;111.40;;;61.13;;
71202;SDS011;58929;47.490;19.090;2023-03-04T01:11:57;107.05;;;63.25;;
71202;SDS011;58929;47.490;19.090;2023-03-04T01:14:25;110.75;;;63.20;;
71202;SDS011;58929;47.490;19.090;2023-03-04T01:16:53;116.68;;;61.45;;
71202;SDS011;58929;47.490;19.090;2023-03-04T01:19:21;122.97;;;65.45;;
71202;SDS011;58929;47.490;19.090;2023-03-04T01:21:49;103.18;;;61.80;;
71202;SDS011;58929;47.490;19.090;2023-03-04T01:24:17;117.15;;;61.63;;
71202;SDS011;58929;47.490;19.090;2023-03-04T01:26:47;113.32;;;64.25;;
71202;SDS011;58929;47.490;19.090;2023-03-04T01:29:15;113.97;;;64.97;;
71202;SDS011;58929;47.490;19.090;2023-03-04T01:31:43;113.80;;;62.00;;
71202;SDS011;58929;47.490;19.090;2023-03-04T01:34:11;111.50;;;62.45;;
71202;SDS011;58929;47.490;19.090;2023-03-04T01:36:39;106.35;;;61.28;;
71202;SDS011;58929;47.490;19.090;2023-03-04T01:39:07;102.70;;;58.88;;
71202;SDS011;58929;47.490;19.090;2023-03-04T01:41:35;114.30;;;63.78;;
71202;SDS011;58929;47.490;19.090;2023-03-04T01:44:05;111.63;;;62.88;;
71202;SDS011;58929;47.490;19.090;2023-03-04T01:46:33;116.55;;;64.00;;
71202;SDS011;58929;47.490;19.090;2023-03-04T01:49:01;104.82;;;60.60;;
71202;SDS011;58929;47.490;19.090;2023-03-04T01:51:29;115.47;;;63.42;;
71202;SDS011;58929;47.490;19.090;2023-03-04T01:53:57;117.25;;;64.07;;
71202;SDS011;58929;47.490;19.090;2023-03-04T01:56:27;108.30;;;60.25;;
71202;SDS011;58929;47.490;19.090;2023-03-04T01:59:13;110.55;;;61.13;;
71202;SDS011;58929;47.490;19.090;2023-03-04T02:01:42;99.25;;;57.60;;
71202;SDS011;58929;47.490;19.090;2023-03-04T02:04:10;103.50;;;55.80;;
71202;SDS011;58929;47.490;19.090;2023-03-04T02:06:38;102.25;;;61.15;;
71202;SDS011;58929;47.490;19.090;2023-03-04T02:09:07;103.07;;;57.75;;
71202;SDS011;58929;47.490;19.090;2023-03-04T02:11:39;92.80;;;53.22;;
71202;SDS011;58929;47.490;19.090;2023-03-04T02:14:06;97.80;;;56.53;;
71202;SDS011;58929;47.490;19.090;2023-03-04T02:16:36;83.78;;;48.47;;
71202;SDS011;58929;47.490;19.090;2023-03-04T02:19:05;88.97;;;51.08;;
71202;SDS011;58929;47.490;19.090;2023-03-04T02:21:33;95.25;;;55.42;;
71202;SDS011;58929;47.490;19.090;2023-03-04T02:24:06;92.15;;;52.95;;
71202;SDS011;58929;47.490;19.090;2023-03-04T02:26:42;87.47;;;49.63;;
71202;SDS011;58929;47.490;19.090;2023-03-04T02:29:13;68.90;;;39.90;;
71202;SDS011;58929;47.490;19.090;2023-03-04T02:31:43;82.57;;;46.42;;
71202;SDS011;58929;47.490;19.090;2023-03-04T02:34:13;82.57;;;47.50;;
71202;SDS011;58929;47.490;19.090;2023-03-04T02:36:42;97.05;;;55.17;;
71202;SDS011;58929;47.490;19.090;2023-03-04T02:39:11;96.85;;;52.33;;
71202;SDS011;58929;47.490;19.090;2023-03-04T02:41:39;87.47;;;47.28;;
71202;SDS011;58929;47.490;19.090;2023-03-04T02:44:16;78.95;;;44.42;;
71202;SDS011;58929;47.490;19.090;2023-03-04T02:46:44;81.80;;;42.83;;
71202;SDS011;58929;47.490;19.090;2023-03-04T02:49:13;76.43;;;44.85;;
71202;SDS011;58929;47.490;19.090;2023-03-04T02:51:41;79.40;;;42.83;;
71202;SDS011;58929;47.490;19.090;2023-03-04T02:54:13;66.65;;;38.08;;
71202;SDS011;58929;47.490;19.090;2023-03-04T02:56:45;62.58;;;35.25;;
71202;SDS011;58929;47.490;19.090;2023-03-04T02:59:15;61.38;;;32.65;;
71202;SDS011;58929;47.490;19.090;2023-03-04T03:01:43;53.70;;;32.13;;
71202;SDS011;58929;47.490;19.090;2023-03-04T03:04:14;63.70;;;35.35;;
71202;SDS011;58929;47.490;19.090;2023-03-04T03:06:43;69.63;;;34.30;;
71202;SDS011;58929;47.490;19.090;2023-03-04T03:09:11;59.28;;;32.25;;
71202;SDS011;58929;47.490;19.090;2023-03-04T03:11:40;62.30;;;33.55;;
71202;SDS011;58929;47.490;19.090;2023-03-04T03:14:08;58.38;;;30.33;;
71202;SDS011;58929;47.490;19.090;2023-03-04T03:16:38;50.50;;;29.45;;
71202;SDS011;58929;47.490;19.090;2023-03-04T03:19:06;47.60;;;25.85;;
71202;SDS011;58929;47.490;19.090;2023-03-04T03:21:35;49.60;;;26.92;;
71202;SDS011;58929;47.490;19.090;2023-03-04T03:24:03;44.90;;;24.27;;
71202;SDS011;58929;47.490;19.090;2023-03-04T03:26:31;41.35;;;22.45;;
71202;SDS011;58929;47.490;19.090;2023-03-04T03:28:58;38.05;;;21.38;;
71202;SDS011;58929;47.490;19.090;2023-03-04T03:31:27;36.65;;;21.60;;
71202;SDS011;58929;47.490;19.090;2023-03-04T03:33:56;34.35;;;18.67;;
71202;SDS011;58929;47.490;19.090;2023-03-04T03:36:26;36.92;;;19.00;;
71202;SDS011;58929;47.490;19.090;2023-03-04T03:38:54;38.92;;;21.05;;
71202;SDS011;58929;47.490;19.090;2023-03-04T03:41:22;38.47;;;20.88;;
71202;SDS011;58929;47.490;19.090;2023-03-04T03:43:50;41.53;;;23.25;;
71202;SDS011;58929;47.490;19.090;2023-03-04T03:46:18;37.17;;;19.17;;
71202;SDS011;58929;47.490;19.090;2023-03-04T03:48:46;44.67;;;22.08;;
71202;SDS011;58929;47.490;19.090;2023-03-04T03:51:15;45.08;;;24.35;;
71202;SDS011;58929;47.490;19.090;2023-03-04T03:53:43;44.17;;;23.13;;
71202;SDS011;58929;47.490;19.090;2023-03-04T03:56:11;39.70;;;20.90;;
71202;SDS011;58929;47.490;19.090;2023-03-04T03:58:39;40.47;;;21.60;;
71202;SDS011;58929;47.490;19.090;2023-03-04T04:01:07;39.33;;;21.48;;
71202;SDS011;58929;47.490;19.090;2023-03-04T04:03:35;35.63;;;20.52;;
71202;SDS011;58929;47.490;19.090;2023-03-04T04:06:05;39.53;;;19.38;;
71202;SDS011;58929;47.490;19.090;2023-03-04T04:08:35;33.70;;;18.65;;
71202;SDS011;58929;47.490;19.090;2023-03-04T04:11:03;47.10;;;20.25;;
71202;SDS011;58929;47.490;19.090;2023-03-04T04:13:31;37.88;;;19.00;;
71202;SDS011;58929;47.490;19.090;2023-03-04T04:16:05;30.33;;;17.10;;
71202;SDS011;58929;47.490;19.090;2023-03-04T04:18:33;35.05;;;18.15;;
71202;SDS011;58929;47.490;19.090;2023-03-04T04:21:02;38.30;;;19.27;;
71202;SDS011;58929;47.490;19.090;2023-03-04T04:23:30;32.13;;;16.60;;
71202;SDS011;58929;47.490;19.090;2023-03-04T04:25:59;34.22;;;18.45;;
71202;SDS011;58929;47.490;19.090;2023-03-04T04:28:27;31.88;;;17.52;;
71202;SDS011;58929;47.490;19.090;2023-03-04T04:30:55;33.00;;;16.88;;
71202;SDS011;58929;47.490;19.090;2023-03-04T04:33:23;34.25;;;17.60;;
71202;SDS011;58929;47.490;19.090;2023-03-04T04:35:52;33.53;;;17.73;;
71202;SDS011;58929;47.490;19.090;2023-03-04T04:38:23;37.28;;;17.23;;
71202;SDS011;58929;47.490;19.090;2023-03-04T04:40:51;32.53;;;16.25;;
71202;SDS011;58929;47.490;19.090;2023-03-04T04:43:20;35.33;;;17.00;;
71202;SDS011;58929;47.490;19.090;2023-03-04T04:45:48;33.20;;;17.50;;
71202;SDS011;58929;47.490;19.090;2023-03-04T04:48:16;30.48;;;17.65;;
71202;SDS011;58929;47.490;19.090;2023-03-04T04:50:44;27.55;;;16.10;;
71202;SDS011;58929;47.490;19.090;2023-03-04T04:53:12;31.98;;;17.40;;
71202;SDS011;58929;47.490;19.090;2023-03-04T04:55:40;38.50;;;16.02;;
71202;SDS011;58929;47.490;19.090;2023-03-04T04:58:08;29.10;;;15.30;;
71202;SDS011;58929;47.490;19.090;2023-03-04T05:00:38;33.28;;;16.63;;
71202;SDS011;58929;47.490;19.090;2023-03-04T05:03:06;32.20;;;16.63;;
71202;SDS011;58929;47.490;19.090;2023-03-04T05:05:34;31.30;;;16.27;;
71202;SDS011;58929;47.490;19.090;2023-03-04T05:08:02;33.17;;;16.77;;
71202;SDS011;58929;47.490;19.090;2023-03-04T05:10:31;36.33;;;16.65;;
71202;SDS011;58929;47.490;19.090;2023-03-04T05:12:59;32.50;;;15.77;;
71202;SDS011;58929;47.490;19.090;2023-03-04T05:15:27;32.60;;;16.75;;
71202;SDS011;58929;47.490;19.090;2023-03-04T05:17:56;30.45;;;14.95;;
71202;SDS011;58929;47.490;19.090;2023-03-04T05:20:24;31.98;;;15.90;;
71202;SDS011;58929;47.490;19.090;2023-03-04T05:22:53;32.13;;;16.15;;
71202;SDS011;58929;47.490;19.090;2023-03-04T05:25:21;32.83;;;16.90;;
71202;SDS011;58929;47.490;19.090;2023-03-04T05:27:49;30.48;;;16.20;;
71202;SDS011;58929;47.490;19.090;2023-03-04T05:30:17;36.28;;;17.73;;
71202;SDS011;58929;47.490;19.090;2023-03-04T05:32:45;30.15;;;15.10;;
71202;SDS011;58929;47.490;19.090;2023-03-04T05:35:14;29.13;;;15.60;;
71202;SDS011;58929;47.490;19.090;2023-03-04T05:37:42;31.23;;;15.95;;
71202;SDS011;58929;47.490;19.090;2023-03-04T05:40:11;28.48;;;14.98;;
71202;SDS011;58929;47.490;19.090;2023-03-04T05:42:39;31.88;;;15.30;;
71202;SDS011;58929;47.490;19.090;2023-03-04T05:45:07;30.92;;;16.50;;
71202;SDS011;58929;47.490;19.090;2023-03-04T05:47:35;39.67;;;18.33;;
71202;SDS011;58929;47.490;19.090;2023-03-04T05:50:03;35.90;;;17.27;;
71202;SDS011;58929;47.490;19.090;2023-03-04T05:52:33;33.75;;;17.38;;
71202;SDS011;58929;47.490;19.090;2023-03-04T05:55:01;37.28;;;18.48;;
71202;SDS011;58929;47.490;19.090;2023-03-04T05:57:29;39.67;;;17.85;;
71202;SDS011;58929;47.490;19.090;2023-03-04T05:59:57;34.08;;;16.30;;
71202;SDS011;58929;47.490;19.090;2023-03-04T06:02:25;35.00;;;17.85;;
71202;SDS011;58929;47.490;19.090;2023-03-04T06:04:53;32.50;;;17.75;;
71202;SDS011;58929;47.490;19.090;2023-03-04T06:07:22;39.00;;;19.63;;
71202;SDS011;58929;47.490;19.090;2023-03-04T06:09:51;38.65;;;17.98;;
71202;SDS011;58929;47.490;19.090;2023-03-04T06:12:19;48.17;;;19.05;;
71202;SDS011;58929;47.490;19.090;2023-03-04T06:14:47;39.38;;;19.05;;
71202;SDS011;58929;47.490;19.090;2023-03-04T06:17:15;35.47;;;17.33;;
71202;SDS011;58929;47.490;19.090;2023-03-04T06:19:43;34.75;;;18.95;;
71202;SDS011;58929;47.490;19.090;2023-03-04T06:22:10;37.00;;;19.48;;
71202;SDS011;58929;47.490;19.090;2023-03-04T06:24:39;36.53;;;19.67;;
71202;SDS011;58929;47.490;19.090;2023-03-04T06:27:08;39.20;;;19.45;;
71202;SDS011;58929;47.490;19.090;2023-03-04T06:29:37;39.78;;;19.27;;
71202;SDS011;58929;47.490;19.090;2023-03-04T06:32:05;37.95;;;20.13;;
71202;SDS011;58929;47.490;19.090;2023-03-04T06:34:33;46.05;;;19.60;;
71202;SDS011;58929;47.490;19.090;2023-03-04T06:37:01;36.38;;;19.13;;
71202;SDS011;58929;47.490;19.090;2023-03-04T06:39:29;35.38;;;18.88;;
71202;SDS011;58929;47.490;19.090;2023-03-04T06:42:13;28.33;;;15.43;;
71202;SDS011;58929;47.490;19.090;2023-03-04T06:44:42;38.83;;;16.13;;
71202;SDS011;58929;47.490;19.090;2023-03-04T06:47:10;28.92;;;15.75;;
71202;SDS011;58929;47.490;19.090;2023-03-04T06:49:38;35.28;;;16.23;;
71202;SDS011;58929;47.490;19.090;2023-03-04T06:52:06;32.15;;;16.33;;
71202;SDS011;58929;47.490;19.090;2023-03-04T06:54:36;30.67;;;16.50;;
71202;SDS011;58929;47.490;19.090;2023-03-04T06:57:04;50.35;;;18.90;;
71202;SDS011;58929;47.490;19.090;2023-03-04T06:59:33;33.75;;;17.75;;
71202;SDS011;58929;47.490;19.090;2023-03-04T07:02:01;33.67;;;17.67;;
71202;SDS011;58929;47.490;19.090;2023-03-04T07:04:29;35.05;;;17.23;;
71202;SDS011;58929;47.490;19.090;2023-03-04T07:06:57;35.35;;;19.13;;
71202;SDS011;58929;47.490;19.090;2023-03-04T07:09:25;38.15;;;19.98;;
71202;SDS011;58929;47.490;19.090;2023-03-04T07:11:53;34.05;;;19.67;;
71202;SDS011;58929;47.490;19.090;2023-03-04T07:14:21;36.65;;;19.92;;
71202;SDS011;58929;47.490;19.090;2023-03-04T07:16:51;40.47;;;21.63;;
71202;SDS011;58929;47.490;19.090;2023-03-04T07:19:19;40.60;;;21.00;;
71202;SDS011;58929;47.490;19.090;2023-03-04T07:21:46;40.53;;;22.08;;
71202;SDS011;58929;47.490;19.090;2023-03-04T07:24:14;41.75;;;22.48;;
71202;SDS011;58929;47.490;19.090;2023-03-04T07:26:42;48.35;;;24.58;;
71202;SDS011;58929;47.490;19.090;2023-03-04T07:29:11;44.28;;;24.35;;
71202;SDS011;58929;47.490;19.090;2023-03-04T07:31:39;43.08;;;24.60;;
71202;SDS011;58929;47.490;19.090;2023-03-04T07:34:09;43.90;;;24.00;;
71202;SDS011;58929;47.490;19.090;2023-03-04T07:36:38;39.60;;;21.98;;
71202;SDS011;58929;47.490;19.090;2023-03-04T07:39:06;41.30;;;22.77;;
71202;SDS011;58929;47.490;19.090;2023-03-04T07:41:34;40.72;;;22.65;;
71202;SDS011;58929;47.490;19.090;2023-03-04T07:44:03;33.28;;;19.38;;
71202;SDS011;58929;47.490;19.090;2023-03-04T07:46:31;36.35;;;20.65;;
71202;SDS011;58929;47.490;19.090;2023-03-04T07:48:59;33.30;;;19.50;;
71202;SDS011;58929;47.490;19.090;2023-03-04T07:51:28;35.58;;;19.88;;
71202;SDS011;58929;47.490;19.090;2023-03-04T07:53:57;31.85;;;19.00;;
71202;SDS011;58929;47.490;19.090;2023-03-04T07:56:26;39.05;;;21.95;;
71202;SDS011;58929;47.490;19.090;2023-03-04T07:58:54;35.72;;;19.95;;
71202;SDS011;58929;47.490;19.090;2023-03-04T08:01:23;33.17;;;18.38;;
71202;SDS011;58929;47.490;19.090;2023-03-04T08:03:51;32.22;;;17.90;;
71202;SDS011;58929;47.490;19.090;2023-03-04T08:06:19;28.27;;;16.50;;
71202;SDS011;58929;47.490;19.090;2023-03-04T08:08:54;29.75;;;16.45;;
71202;SDS011;58929;47.490;19.090;2023-03-04T08:11:22;23.42;;;14.43;;
71202;SDS011;58929;47.490;19.090;2023-03-04T08:13:50;23.05;;;12.40;;
71202;SDS011;58929;47.490;19.090;2023-03-04T08:16:21;25.10;;;14.27;;
71202;SDS011;58929;47.490;19.090;2023-03-04T08:18:50;20.50;;;11.68;;
71202;SDS011;58929;47.490;19.090;2023-03-04T08:21:18;21.67;;;12.70;;
71202;SDS011;58929;47.490;19.090;2023-03-04T08:23:47;25.08;;;12.18;;
71202;SDS011;58929;47.490;19.090;2023-03-04T08:26:17;22.15;;;13.48;;
71202;SDS011;58929;47.490;19.090;2023-03-04T08:28:46;21.70;;;12.90;;
71202;SDS011;58929;47.490;19.090;2023-03-04T08:31:14;22.40;;;12.57;;
71202;SDS011;58929;47.490;19.090;2023-03-04T08:33:43;23.90;;;12.27;;
71202;SDS011;58929;47.490;19.090;2023-03-04T08:36:11;28.02;;;14.77;;
71202;SDS011;58929;47.490;19.090;2023-03-04T08:38:40;29.33;;;15.15;;
71202;SDS011;58929;47.490;19.090;2023-03-04T08:41:08;34.38;;;18.13;;
71202;SDS011;58929;47.490;19.090;2023-03-04T08:43:37;35.33;;;17.15;;
71202;SDS011;58929;47.490;19.090;2023-03-04T08:46:06;27.45;;;15.82;;
71202;SDS011;58929;47.490;19.090;2023-03-04T08:48:34;30.85;;;18.27;;
71202;SDS011;58929;47.490;19.090;2023-03-04T08:51:06;35.95;;;19.02;;
71202;SDS011;58929;47.490;19.090;2023-03-04T08:53:34;36.13;;;19.38;;
71202;SDS011;58929;47.490;19.090;2023-03-04T08:56:02;34.95;;;19.38;;
71202;SDS011;58929;47.490;19.090;2023-03-04T08:58:30;42.47;;;20.42;;
71202;SDS011;58929;47.490;19.090;2023-03-04T09:01:00;34.75;;;19.55;;
71202;SDS011;58929;47.490;19.090;2023-03-04T09:03:28;31.60;;;19.52;;
71202;SDS011;58929;47.490;19.090;2023-03-04T09:05:56;36.25;;;20.33;;
71202;SDS011;58929;47.490;19.090;2023-03-04T09:08:24;38.03;;;21.85;;
71202;SDS011;58929;47.490;19.090;2023-03-04T09:10:52;33.83;;;19.95;;
71202;SDS011;58929;47.490;19.090;2023-03-04T09:13:21;37.65;;;20.92;;
71202;SDS011;58929;47.490;19.090;2023-03-04T09:15:51;41.92;;;21.40;;
71202;SDS011;58929;47.490;19.090;2023-03-04T09:18:21;39.38;;;23.10;;
71202;SDS011;58929;47.490;19.090;2023-03-04T09:20:50;43.63;;;24.67;;
71202;SDS011;58929;47.490;19.090;2023-03-04T09:23:18;40.53;;;24.75;;
71202;SDS011;58929;47.490;19.090;2023-03-04T09:25:46;40.00;;;24.52;;
71202;SDS011;58929;47.490;19.090;2023-03-04T09:28:15;42.05;;;24.75;;
71202;SDS011;58929;47.490;19.090;2023-03-04T09:30:43;48.13;;;24.73;;
71202;SDS011;58929;47.490;19.090;2023-03-04T09:33:11;42.38;;;24.70;;
71202;SDS011;58929;47.490;19.090;2023-03-04T09:35:41;43.88;;;26.20;;
71202;SDS011;58929;47.490;19.090;2023-03-04T09:38:09;43.65;;;24.98;;
71202;SDS011;58929;47.490;19.090;2023-03-04T09:40:38;38.40;;;24.52;;
71202;SDS011;58929;47.490;19.090;2023-03-04T09:43:10;46.20;;;26.35;;
71202;SDS011;58929;47.490;19.090;2023-03-04T09:45:40;42.58;;;24.67;;
71202;SDS011;58929;47.490;19.090;2023-03-04T09:48:11;47.70;;;25.58;;
71202;SDS011;58929;47.490;19.090;2023-03-04T09:50:44;41.92;;;24.25;;
71202;SDS011;58929;47.490;19.090;2023-03-04T09:53:17;44.22;;;25.35;;
71202;SDS011;58929;47.490;19.090;2023-03-04T09:55:47;42.20;;;25.52;;
71202;SDS011;58929;47.490;19.090;2023-03-04T09:58:20;39.75;;;24.13;;
71202;SDS011;58929;47.490;19.090;2023-03-04T10:00:53;37.03;;;23.33;;
71202;SDS011;58929;47.490;19.090;2023-03-04T10:03:22;54.42;;;27.80;;
71202;SDS011;58929;47.490;19.090;2023-03-04T10:05:54;45.30;;;24.33;;
71202;SDS011;58929;47.490;19.090;2023-03-04T10:08:39;39.83;;;24.67;;
71202;SDS011;58929;47.490;19.090;2023-03-04T10:11:10;46.33;;;25.02;;
71202;SDS011;58929;47.490;19.090;2023-03-04T10:13:41;41.90;;;24.83;;
71202;SDS011;58929;47.490;19.090;2023-03-04T10:16:11;38.92;;;25.17;;
71202;SDS011;58929;47.490;19.090;2023-03-04T10:18:42;45.25;;;26.23;;
71202;SDS011;58929;47.490;19.090;2023-03-04T10:21:14;40.75;;;25.58;;
71202;SDS011;58929;47.490;19.090;2023-03-04T10:23:43;41.58;;;25.45;;
71202;SDS011;58929;47.490;19.090;2023-03-04T10:26:12;46.05;;;28.15;;
71202;SDS011;58929;47.490;19.090;2023-03-04T10:28:41;40.55;;;26.27;;
71202;SDS011;58929;47.490;19.090;2023-03-04T10:31:11;43.78;;;25.75;;
71202;SDS011;58929;47.490;19.090;2023-03-04T10:33:42;41.78;;;25.92;;
71202;SDS011;58929;47.490;19.090;2023-03-04T10:36:17;40.08;;;26.45;;
71202;SDS011;58929;47.490;19.090;2023-03-04T10:38:47;42.22;;;27.05;;
71202;SDS011;58929;47.490;19.090;2023-03-04T10:41:16;38.22;;;25.63;;
71202;SDS011;58929;47.490;19.090;2023-03-04T10:43:46;41.40;;;27.25;;
71202;SDS011;58929;47.490;19.090;2023-03-04T10:46:16;39.50;;;25.77;;
71202;SDS011;58929;47.490;19.090;2023-03-04T10:48:51;40.78;;;26.15;;
71202;SDS011;58929;47.490;19.090;2023-03-04T10:51:21;37.22;;;24.80;;
71202;SDS011;58929;47.490;19.090;2023-03-04T10:53:50;44.55;;;26.80;;
71202;SDS011;58929;47.490;19.090;2023-03-04T10:56:35;46.53;;;28.00;;
71202;SDS011;58929;47.490;19.090;2023-03-04T11:01:50;41.50;;;25.75;;
71202;SDS011;58929;47.490;19.090;2023-03-04T11:04:21;35.40;;;23.08;;
71202;SDS011;58929;47.490;19.090;2023-03-04T11:06:52;39.72;;;22.35;;
71202;SDS011;58929;47.490;19.090;2023-03-04T11:09:21;38.72;;;23.83;;
71202;SDS011;58929;47.490;19.090;2023-03-04T11:11:49;40.85;;;23.05;;
71202;SDS011;58929;47.490;19.090;2023-03-04T11:14:21;37.63;;;22.33;;
71202;SDS011;58929;47.490;19.090;2023-03-04T11:16:52;37.25;;;22.10;;
71202;SDS011;58929;47.490;19.090;2023-03-04T11:19:21;33.28;;;22.23;;
71202;SDS011;58929;47.490;19.090;2023-03-04T11:21:51;38.20;;;23.42;;
71202;SDS011;58929;47.490;19.090;2023-03-04T11:24:20;37.65;;;21.58;;
71202;SDS011;58929;47.490;19.090;2023-03-04T11:26:56;34.03;;;22.67;;
71202;SDS011;58929;47.490;19.090;2023-03-04T11:29:27;38.80;;;22.80;;
71202;SDS011;58929;47.490;19.090;2023-03-04T11:31:57;37.60;;;22.58;;
71202;SDS011;58929;47.490;19.090;2023-03-04T11:34:30;38.85;;;22.92;;
71202;SDS011;58929;47.490;19.090;2023-03-04T11:37:02;40.78;;;24.15;;
71202;SDS011;58929;47.490;19.090;2023-03-04T11:39:32;40.72;;;23.40;;
71202;SDS011;58929;47.490;19.090;2023-03-04T11:42:01;35.53;;;22.70;;
71202;SDS011;58929;47.490;19.090;2023-03-04T11:44:31;34.65;;;22.80;;
71202;SDS011;58929;47.490;19.090;2023-03-04T11:47:02;33.47;;;21.55;;
71202;SDS011;58929;47.490;19.090;2023-03-04T11:49:46;33.88;;;21.92;;
71202;SDS011;58929;47.490;19.090;2023-03-04T11:52:21;34.20;;;21.77;;
71202;SDS011;58929;47.490;19.090;2023-03-04T11:54:57;34.17;;;21.55;;
71202;SDS011;58929;47.490;19.090;2023-03-04T11:57:29;36.05;;;21.98;;
71202;SDS011;58929;47.490;19.090;2023-03-04T12:00:08;40.97;;;23.90;;
71202;SDS011;58929;47.490;19.090;2023-03-04T12:02:41;35.42;;;23.73;;
71202;SDS011;58929;47.490;19.090;2023-03-04T12:05:15;38.58;;;22.65;;
71202;SDS011;58929;47.490;19.090;2023-03-04T12:10:29;39.42;;;22.20;;
71202;SDS011;58929;47.490;19.090;2023-03-04T12:13:22;36.55;;;23.48;;
71202;SDS011;58929;47.490;19.090;2023-03-04T12:15:53;35.83;;;24.48;;
71202;SDS011;58929;47.490;19.090;2023-03-04T12:18:27;37.55;;;25.45;;
71202;SDS011;58929;47.490;19.090;2023-03-04T12:21:01;33.95;;;22.13;;
71202;SDS011;58929;47.490;19.090;2023-03-04T12:23:36;34.08;;;23.08;;
71202;SDS011;58929;47.490;19.090;2023-03-04T12:26:11;40.65;;;26.42;;
71202;SDS011;58929;47.490;19.090;2023-03-04T12:28:48;36.55;;;23.60;;
71202;SDS011;58929;47.490;19.090;2023-03-04T12:31:33;35.10;;;24.90;;
71202;SDS011;58929;47.490;19.090;2023-03-04T12:36:51;33.95;;;23.88;;
71202;SDS011;58929;47.490;19.090;2023-03-04T12:39:24;33.22;;;22.55;;
71202;SDS011;58929;47.490;19.090;2023-03-04T12:41:59;35.58;;;23.65;;
71202;SDS011;58929;47.490;19.090;2023-03-04T12:44:32;34.85;;;23.77;;
71202;SDS011;58929;47.490;19.090;2023-03-04T12:47:17;34.53;;;22.73;;
71202;SDS011;58929;47.490;19.090;2023-03-04T12:49:54;35.22;;;23.13;;
71202;SDS011;58929;47.490;19.090;2023-03-04T12:52:33;37.15;;;22.10;;
71202;SDS011;58929;47.490;19.090;2023-03-04T12:55:07;29.58;;;22.05;;
71202;SDS011;58929;47.490;19.090;2023-03-04T12:57:38;30.30;;;21.20;;
71202;SDS011;58929;47.490;19.090;2023-03-04T13:00:08;30.10;;;21.35;;
71202;SDS011;58929;47.490;19.090;2023-03-04T13:02:45;31.58;;;22.02;;
71202;SDS011;58929;47.490;19.090;2023-03-04T13:05:25;31.75;;;20.58;;
71202;SDS011;58929;47.490;19.090;2023-03-04T13:07:58;29.10;;;19.95;;
71202;SDS011;58929;47.490;19.090;2023-03-04T13:10:29;31.50;;;21.10;;
71202;SDS011;58929;47.490;19.090;2023-03-04T13:13:02;28.80;;;21.10;;
71202;SDS011;58929;47.490;19.090;2023-03-04T13:15:32;28.52;;;21.00;;
71202;SDS011;58929;47.490;19.090;2023-03-04T13:18:02;30.00;;;20.98;;
71202;SDS011;58929;47.490;19.090;2023-03-04T13:20:32;29.95;;;20.63;;
71202;SDS011;58929;47.490;19.090;2023-03-04T13:23:00;32.50;;;22.13;;
71202;SDS011;58929;47.490;19.090;2023-03-04T13:25:31;29.10;;;20.23;;
71202;SDS011;58929;47.490;19.090;2023-03-04T13:28:14;27.13;;;20.60;;
71202;SDS011;58929;47.490;19.090;2023-03-04T13:39:27;25.15;;;16.95;;
71202;SDS011;58929;47.490;19.090;2023-03-04T13:41:55;28.13;;;16.73;;
71202;SDS011;58929;47.490;19.090;2023-03-04T13:47:08;22.38;;;16.02;;
71202;SDS011;58929;47.490;19.090;2023-03-04T13:49:36;22.02;;;15.50;;
71202;SDS011;58929;47.490;19.090;2023-03-04T13:54:51;19.95;;;13.77;;
71202;SDS011;58929;47.490;19.090;2023-03-04T13:57:46;25.20;;;13.77;;
71202;SDS011;58929;47.490;19.090;2023-03-04T14:00:15;18.67;;;13.27;;
71202;SDS011;58929;47.490;19.090;2023-03-04T14:02:44;21.67;;;13.27;;
71202;SDS011;58929;47.490;19.090;2023-03-04T14:05:12;21.05;;;14.13;;
71202;SDS011;58929;47.490;19.090;2023-03-04T14:07:40;24.77;;;13.75;;
71202;SDS011;58929;47.490;19.090;2023-03-04T14:10:19;17.10;;;12.75;;
71202;SDS011;58929;47.490;19.090;2023-03-04T14:12:49;18.58;;;12.27;;
71202;SDS011;58929;47.490;19.090;2023-03-04T14:15:20;17.45;;;11.02;;
71202;SDS011;58929;47.490;19.090;2023-03-04T14:17:50;14.77;;;11.00;;
71202;SDS011;58929;47.490;19.090;2023-03-04T14:20:23;19.92;;;11.43;;
71202;SDS011;58929;47.490;19.090;2023-03-04T14:22:52;18.27;;;11.70;;
71202;SDS011;58929;47.490;19.090;2023-03-04T14:25:21;15.68;;;10.73;;
71202;SDS011;58929;47.490;19.090;2023-03-04T14:27:49;19.70;;;10.90;;
71202;SDS011;58929;47.490;19.090;2023-03-04T14:30:28;14.63;;;11.02;;
71202;SDS011;58929;47.490;19.090;2023-03-04T14:33:13;15.80;;;10.55;;
71202;SDS011;58929;47.490;19.090;2023-03-04T14:35:44;20.98;;;10.02;;
71202;SDS011;58929;47.490;19.090;2023-03-04T14:38:15;13.00;;;10.02;;
71202;SDS011;58929;47.490;19.090;2023-03-04T14:40:45;13.57;;;10.70;;
71202;SDS011;58929;47.490;19.090;2023-03-04T14:43:15;14.90;;;10.93;;